Harbor Beach, Michigan
Current Conditions -  °F | °C
As of 7:54 AM on Saturday 20 Dec 2014 (Local Time) from KBAX Reporting Station
Clear Clear  
Wind Chill: 13°   Ceiling: Unl
Heat Index: 13°   Visibility: 10mi
Dew Point: 12°   Wind: 0mph
Humidity: 95%   Direction: NA
Pressure: 30.32"   Gusts: NA
Location:  43.84°N, 82.65°W
Report Text: KBAX 201254Z AUTO 00000KT 10SM CLR M10/M11 A3032 RMK AO2 T11041110
Loading
Personal Weather Stations






























Interactive Weather Map New forecast layout! Learn more

10-Day Weather Forecast

Advertisements
Track Severe Weather on mobile